Station Historical Data
Daily Summary for May 28, 2017 Units:  English    Metric   Both
« Previous Day
Next Day »
Daily Weekly Monthly Yearly Custom
  High: Low: Average:
Temperature: 82.2 °F 62.8 °F 71.4 °F
Dew Point: 71.1 °F 60.1 °F 65 °F
Humidity: 94% 61% 81%
Wind Speed: 2.0mph 0.0mph 0mph
Wind Gust: 6.0mph - -
Wind- - SW
Pressure: 30.02 in 29.86 in -
Precipitation: 0.04 in    
Historical Graphs
 
 
Tabular Data for May 28, 2017
Time Temperature Dew Point Pressure Wind Wind Speed Wind Gust Humidity Rainfall Rate (Hourly) Conditions
00:00 74.0 °F 69.2 °F 29.96 in Calm     85% 0.00 in SCT
00:10 73.9 °F 69.1 °F 29.96 in Calm     85% 0.00 in SCT
00:20 73.8 °F 69.0 °F 29.95 in Calm     85% 0.00 in SCT
00:30 73.6 °F 68.8 °F 29.94 in Calm     85% 0.00 in SCT
00:40 73.4 °F 69.0 °F 29.95 in Calm     86% 0.00 in SCT
00:50 73.2 °F 68.8 °F 29.95 in Calm     86% 0.00 in SCT
01:00 73.0 °F 68.6 °F 29.95 in Calm     86% 0.00 in SCT
01:10 72.6 °F 63.5 °F 30.00 in SSW 2.0 mph 6.0 mph 73% 0.00 in SCT
01:20 69.2 °F 62.8 °F 29.99 in Calm   6.0 mph 80% 0.01 in RA
01:30 66.9 °F 61.9 °F 29.98 in Calm   2.0 mph 84% 0.02 in SCT
01:40 65.8 °F 61.5 °F 29.97 in Calm   1.0 mph 86% 0.01 in SCT
01:50 65.3 °F 61.7 °F 29.98 in Calm     88% 0.00 in SCT
02:00 64.8 °F 61.5 °F 29.97 in Calm     89% 0.00 in SCT
02:10 64.6 °F 61.6 °F 29.96 in Calm     90% 0.00 in SCT
02:20 64.4 °F 61.4 °F 29.94 in Calm     90% 0.00 in SCT
02:30 64.3 °F 61.6 °F 29.94 in Calm     91% 0.00 in SCT
02:40 64.2 °F 61.5 °F 29.94 in Calm     91% 0.00 in SCT
02:50 64.1 °F 61.4 °F 29.93 in Calm     91% 0.00 in SCT
03:00 64.0 °F 61.3 °F 29.92 in Calm     91% 0.00 in SCT
03:10 63.9 °F 61.2 °F 29.92 in Calm   1.0 mph 91% 0.00 in SCT
03:20 63.9 °F 61.2 °F 29.92 in Calm     91% 0.00 in SCT
03:30 63.9 °F 61.5 °F 29.92 in Calm   1.0 mph 92% 0.00 in SCT
03:40 63.7 °F 61.4 °F 29.92 in Calm     92% 0.00 in SCT
03:50 62.8 °F 60.1 °F 29.92 in Calm     91% 0.00 in SCT
04:00 62.8 °F 60.1 °F 29.92 in Calm     91% 0.00 in SCT
04:10 62.8 °F 60.1 °F 29.91 in Calm     91% 0.00 in SCT
04:20 62.8 °F 60.1 °F 29.91 in Calm     91% 0.00 in SCT
04:30 62.8 °F 60.1 °F 29.91 in Calm     91% 0.00 in SCT
04:40 62.8 °F 60.1 °F 29.91 in Calm     91% 0.00 in SCT
04:50 62.8 °F 60.1 °F 29.90 in Calm     91% 0.00 in SCT
05:00 62.8 °F 60.1 °F 29.90 in Calm     91% 0.00 in SCT
05:10 62.8 °F 60.1 °F 29.90 in Calm     91% 0.00 in SCT
05:20 62.8 °F 60.1 °F 29.90 in Calm     91% 0.00 in SCT
05:30 62.8 °F 60.1 °F 29.91 in Calm     91% 0.00 in SCT
05:40 62.8 °F 60.1 °F 29.94 in Calm     91% 0.00 in SCT
05:50 62.8 °F 60.1 °F 30.00 in Calm     91% 0.00 in SCT
06:00 62.8 °F 60.1 °F 30.02 in Calm     91% 0.00 in SCT
06:10 62.8 °F 60.1 °F 30.01 in Calm     91% 0.00 in SCT
06:20 62.8 °F 60.1 °F 29.93 in Calm     91% 0.00 in SCT
06:30 62.8 °F 60.1 °F 29.90 in Calm     91% 0.00 in SCT
06:50 62.8 °F 60.1 °F 29.89 in Calm     91% 0.00 in SCT
07:00 62.8 °F 60.1 °F 29.91 in Calm     91% 0.00 in SCT
07:10 62.8 °F 60.1 °F 29.92 in Calm     91% 0.00 in SCT
07:20 62.8 °F 60.1 °F 29.94 in Calm     91% 0.00 in SCT
07:30 62.8 °F 60.1 °F 29.94 in Calm     91% 0.00 in SCT
07:40 62.8 °F 60.1 °F 29.94 in Calm     91% 0.00 in SCT
07:50 62.8 °F 60.1 °F 29.96 in Calm     91% 0.00 in SCT
08:00 62.8 °F 60.1 °F 29.96 in Calm     91% 0.00 in SCT
08:10 62.8 °F 60.1 °F 29.96 in Calm     91% 0.00 in SCT
08:20 62.8 °F 60.1 °F 29.95 in Calm     91% 0.00 in SCT
08:30 62.8 °F 60.1 °F 29.96 in Calm     91% 0.00 in SCT
08:40 62.8 °F 60.1 °F 29.97 in Calm     91% 0.00 in SCT
08:50 62.8 °F 60.1 °F 29.98 in Calm     91% 0.00 in SCT
09:00 62.8 °F 60.1 °F 29.98 in Calm     91% 0.00 in SCT
09:10 62.8 °F 60.1 °F 29.97 in Calm     91% 0.00 in SCT
09:20 62.8 °F 60.1 °F 29.96 in Calm     91% 0.00 in SCT
09:30 62.8 °F 60.1 °F 29.96 in Calm     91% 0.00 in SCT
09:40 65.6 °F 63.5 °F 29.96 in Calm     93% 0.00 in SCT
09:50 65.7 °F 63.7 °F 29.96 in Calm   1.0 mph 93% 0.00 in SCT
10:00 66.7 °F 64.9 °F 29.96 in Calm   1.0 mph 94% 0.00 in SCT
10:10 67.5 °F 65.4 °F 29.96 in Calm   1.0 mph 93% 0.00 in SCT
10:30 69.2 °F 66.4 °F 29.96 in Calm   2.0 mph 91% 0.00 in SCT
10:40 70.3 °F 67.2 °F 29.95 in Calm   1.0 mph 90% 0.00 in SCT
10:50 70.8 °F 67.1 °F 29.95 in Calm   1.0 mph 88% 0.00 in SCT
11:00 71.3 °F 67.6 °F 29.96 in Calm   1.0 mph 88% 0.00 in SCT
11:10 71.9 °F 68.2 °F 29.95 in Calm   1.0 mph 88% 0.00 in SCT
11:20 72.0 °F 67.6 °F 29.95 in Calm   2.0 mph 86% 0.00 in SCT
11:30 72.4 °F 68.3 °F 29.95 in Calm   2.0 mph 87% 0.00 in SCT
11:40 72.9 °F 68.5 °F 29.95 in Calm     86% 0.00 in SCT
11:50 73.1 °F 68.0 °F 29.94 in Calm   2.0 mph 84% 0.00 in SCT
12:00 73.8 °F 69.0 °F 29.94 in WNW 1.0 mph 2.0 mph 85% 0.00 in SCT
12:10 74.2 °F 69.4 °F 29.94 in Calm   4.0 mph 85% 0.00 in SCT
12:20 74.7 °F 69.5 °F 29.94 in West 1.0 mph 5.0 mph 84% 0.00 in SCT
12:30 75.3 °F 69.0 °F 29.94 in Calm   1.0 mph 81% 0.00 in SCT
12:40 76.4 °F 69.0 °F 29.93 in Calm   1.0 mph 78% 0.00 in SCT
12:50 77.5 °F 70.9 °F 29.92 in Calm   2.0 mph 80% 0.00 in SCT
13:00 78.3 °F 68.9 °F 29.93 in Calm   2.0 mph 73% 0.00 in SCT
13:10 78.4 °F 69.0 °F 29.93 in Calm   2.0 mph 73% 0.00 in SCT
13:20 78.9 °F 71.1 °F 29.93 in Calm   2.0 mph 77% 0.00 in SCT
13:30 79.5 °F 70.5 °F 29.93 in Calm   2.0 mph 74% 0.00 in SCT
13:40 80.5 °F 70.6 °F 29.92 in Calm   3.0 mph 72% 0.00 in SCT
13:50 81.1 °F 69.6 °F 29.91 in North 1.0 mph 2.0 mph 68% 0.00 in SCT
14:00 81.8 °F 69.4 °F 29.91 in WNW 1.0 mph 3.0 mph 66% 0.00 in SCT
14:10 82.1 °F 70.0 °F 29.90 in Calm   2.0 mph 67% 0.00 in SCT
14:20 82.1 °F 69.2 °F 29.89 in Calm   2.0 mph 65% 0.00 in SCT
14:30 82.0 °F 67.2 °F 29.88 in Calm   2.0 mph 61% 0.00 in SCT
14:40 82.2 °F 69.2 °F 29.88 in Calm   2.0 mph 65% 0.00 in SCT
14:50 82.1 °F 68.7 °F 29.88 in Calm   2.0 mph 64% 0.00 in SCT
15:00 81.6 °F 68.2 °F 29.87 in Calm   2.0 mph 64% 0.00 in SCT
15:10 81.6 °F 70.0 °F 29.87 in Calm   2.0 mph 68% 0.00 in SCT
15:20 81.3 °F 68.4 °F 29.87 in Calm   3.0 mph 65% 0.00 in SCT
15:30 81.1 °F 67.7 °F 29.86 in Calm   3.0 mph 64% 0.00 in SCT
15:40 81.0 °F 68.6 °F 29.86 in Calm   2.0 mph 66% 0.00 in SCT
15:50 81.2 °F 68.3 °F 29.86 in Calm   1.0 mph 65% 0.00 in SCT
16:00 81.3 °F 68.0 °F 29.87 in Calm   1.0 mph 64% 0.00 in SCT
16:10 81.4 °F 68.5 °F 29.88 in Calm   3.0 mph 65% 0.00 in SCT
16:20 81.2 °F 69.6 °F 29.88 in Calm   2.0 mph 68% 0.00 in SCT
16:30 81.0 °F 67.7 °F 29.88 in Calm   2.0 mph 64% 0.00 in SCT
16:40 80.9 °F 68.9 °F 29.88 in Calm   1.0 mph 67% 0.00 in SCT
16:50 80.9 °F 68.9 °F 29.88 in Calm   2.0 mph 67% 0.00 in SCT
17:00 81.0 °F 69.0 °F 29.88 in Calm     67% 0.00 in SCT
17:10 81.2 °F 68.8 °F 29.88 in Calm   1.0 mph 66% 0.00 in SCT
17:20 81.0 °F 69.0 °F 29.88 in Calm   1.0 mph 67% 0.00 in SCT
17:30 81.3 °F 67.9 °F 29.88 in Calm   1.0 mph 64% 0.00 in SCT
17:40 81.1 °F 67.3 °F 29.89 in Calm   6.0 mph 63% 0.00 in SCT
17:50 80.8 °F 67.9 °F 29.90 in Calm   1.0 mph 65% 0.00 in SCT
18:00 80.9 °F 68.0 °F 29.90 in Calm   1.0 mph 65% 0.00 in SCT
18:10 81.0 °F 67.2 °F 29.90 in WSW 1.0 mph 5.0 mph 63% 0.00 in SCT
18:20 80.9 °F 68.0 °F 29.90 in Calm   6.0 mph 65% 0.00 in SCT
18:30 80.4 °F 67.6 °F 29.90 in Calm   2.0 mph 65% 0.00 in SCT
18:40 79.8 °F 67.4 °F 29.91 in Calm   1.0 mph 66% 0.00 in SCT
18:50 79.5 °F 66.3 °F 29.90 in Calm   3.0 mph 64% 0.00 in SCT
19:00 79.1 °F 66.3 °F 29.91 in Calm   2.0 mph 65% 0.00 in SCT
19:10 78.4 °F 66.1 °F 29.91 in Calm   1.0 mph 66% 0.00 in SCT
19:20 77.8 °F 66.0 °F 29.91 in Calm   1.0 mph 67% 0.00 in SCT
19:30 77.2 °F 66.2 °F 29.91 in Calm     69% 0.00 in SCT
19:40 76.6 °F 66.5 °F 29.91 in Calm     71% 0.00 in SCT
19:50 76.2 °F 66.5 °F 29.91 in Calm     72% 0.00 in SCT
20:00 75.8 °F 66.9 °F 29.91 in Calm     74% 0.00 in SCT
20:10 75.3 °F 67.2 °F 29.91 in Calm     76% 0.00 in SCT
20:20 74.6 °F 66.9 °F 29.91 in Calm     77% 0.00 in SCT
20:30 74.0 °F 66.3 °F 29.92 in Calm     77% 0.00 in SCT
20:40 73.5 °F 66.2 °F 29.91 in Calm     78% 0.00 in SCT
20:50 73.1 °F 65.8 °F 29.91 in Calm     78% 0.00 in SCT
21:00 72.7 °F 65.8 °F 29.91 in Calm     79% 0.00 in SCT
21:10 72.3 °F 65.8 °F 29.90 in Calm     80% 0.00 in SCT
21:20 71.8 °F 65.7 °F 29.90 in Calm     81% 0.00 in SCT
21:30 71.4 °F 65.6 °F 29.90 in Calm     82% 0.00 in SCT
21:40 71.0 °F 65.6 °F 29.91 in Calm     83% 0.00 in SCT
21:50 70.6 °F 65.5 °F 29.91 in Calm     84% 0.00 in SCT
22:00 70.3 °F 65.6 °F 29.91 in Calm     85% 0.00 in SCT
22:10 70.0 °F 65.3 °F 29.91 in Calm     85% 0.00 in SCT
22:20 69.8 °F 65.1 °F 29.92 in Calm     85% 0.00 in SCT
22:30 69.6 °F 65.2 °F 29.92 in Calm     86% 0.00 in SCT
22:40 69.3 °F 64.6 °F 29.92 in Calm     85% 0.00 in SCT
22:50 69.1 °F 64.7 °F 29.92 in Calm     86% 0.00 in SCT
23:00 68.8 °F 64.5 °F 29.92 in Calm     86% 0.00 in SCT
23:10 68.6 °F 64.6 °F 29.92 in Calm     87% 0.00 in SCT
23:20 68.4 °F 64.7 °F 29.93 in Calm     88% 0.00 in SCT
23:30 68.2 °F 64.2 °F 29.93 in Calm     87% 0.00 in SCT
23:40 68.1 °F 64.4 °F 29.93 in Calm     88% 0.00 in SCT
23:50 68.0 °F 64.3 °F 29.94 in Calm     88% 0.00 in SCT
Piedmont Bend
Compliments of Weather Underground - 2 mb